← Previous May 31, 2023 5:29 PM

NXUS99 KMPX 261052
WRKTAF

TAF 
KMSP 261120Z 2612/2718 14008KT P6SM SKC=